Time;durP1;ratioP1;P1;durP2;ratioP2;P2;SDS_P1;SDS_P2;PMS_P1;PMS_P2;Temp;Humidity;BMP_temperature;BMP_pressure;BME280_temperature;BME280_humidity;BME280_pressure;Samples;Min_cycle;Max_cycle;Signal;HPM_P1;HPM_P2
2021/04/03 00:00:35;;;;;;;8.70;4.57;;;8.60;79.10;;;;;;8248289;28;20219;-76
2021/04/03 00:04:39;;;;;;;12.90;5.10;;;8.60;79.40;;;;;;8256946;28;20206;-76
2021/04/03 00:08:42;;;;;;;15.03;5.50;;;8.60;80.00;;;;;;8254015;28;20479;-75
2021/04/03 00:12:43;;;;;;;16.83;6.13;;;8.60;80.10;;;;;;8262054;28;20290;-76
2021/04/03 00:16:44;;;;;;;8.30;4.67;;;8.50;80.20;;;;;;8283114;28;20832;-76
2021/04/03 00:20:46;;;;;;;9.10;6.70;;;8.50;80.50;;;;;;8271287;28;20807;-75
2021/04/03 00:24:51;;;;;;;10.60;5.03;;;8.50;80.60;;;;;;8262743;28;20249;-76
2021/04/03 00:28:51;;;;;;;10.67;5.80;;;8.50;80.90;;;;;;8264175;28;20505;-76
2021/04/03 00:32:58;;;;;;;12.23;5.80;;;8.50;80.90;;;;;;8250096;28;20493;-76
2021/04/03 00:36:58;;;;;;;15.50;6.40;;;8.50;81.40;;;;;;8259716;28;20217;-74
2021/04/03 00:41:01;;;;;;;12.73;5.23;;;8.50;81.70;;;;;;8280146;28;20441;-74
2021/04/03 00:45:07;;;;;;;10.13;5.83;;;8.40;81.80;;;;;;8280924;28;20187;-75
2021/04/03 00:49:11;;;;;;;7.87;5.70;;;8.50;82.20;;;;;;8265586;28;20552;-76
2021/04/03 00:53:17;;;;;;;12.37;6.80;;;8.40;82.60;;;;;;8253918;28;20445;-74
2021/04/03 00:57:18;;;;;;;14.90;7.87;;;8.40;83.10;;;;;;8255076;28;20188;-75
2021/04/03 01:01:22;;;;;;;15.57;7.90;;;8.40;83.50;;;;;;8261978;28;20503;-77
2021/04/03 01:05:25;;;;;;;17.03;7.30;;;8.40;84.00;;;;;;8271661;28;20186;-75
2021/04/03 01:09:30;;;;;;;18.60;8.03;;;8.40;84.20;;;;;;8293863;28;20483;-76
2021/04/03 01:14:21;;;;;;;19.27;7.30;;;8.40;84.30;;;;;;8258432;28;20494;-75
2021/04/03 01:18:37;;;;;;;15.93;7.70;;;8.40;84.40;;;;;;8281123;28;20779;-76
2021/04/03 01:23:14;;;;;;;16.10;8.00;;;8.30;84.50;;;;;;8269158;28;20454;-76
2021/04/03 01:27:22;;;;;;;15.47;7.53;;;8.30;84.70;;;;;;8281512;28;20446;-76
2021/04/03 01:31:23;;;;;;;11.53;6.80;;;8.30;84.50;;;;;;8262339;28;20567;-76
2021/04/03 01:35:34;;;;;;;18.67;6.90;;;8.30;84.20;;;;;;8265358;28;20445;-76
2021/04/03 01:39:36;;;;;;;15.53;6.27;;;8.30;83.30;;;;;;8275792;28;20445;-79
2021/04/03 01:43:46;;;;;;;20.73;4.93;;;8.30;81.70;;;;;;8258736;28;20496;-76
2021/04/03 01:47:51;;;;;;;10.67;4.43;;;8.40;79.10;;;;;;8270276;28;20451;-76
2021/04/03 01:51:55;;;;;;;13.97;5.50;;;8.30;78.60;;;;;;8264643;28;20485;-76
2021/04/03 01:55:57;;;;;;;21.40;5.90;;;8.30;77.70;;;;;;8257158;28;20484;-76
2021/04/03 01:59:59;;;;;;;17.73;6.43;;;8.30;77.90;;;;;;8271333;28;20447;-76
2021/04/03 02:04:00;;;;;;;18.30;6.07;;;8.30;78.20;;;;;;8280073;28;20547;-76
2021/04/03 02:08:02;;;;;;;27.47;6.17;;;8.30;78.20;;;;;;8277678;28;20502;-76
2021/04/03 02:12:09;;;;;;;20.70;7.13;;;8.20;78.30;;;;;;8259613;28;20458;-76
2021/04/03 02:16:10;;;;;;;23.00;8.10;;;8.20;78.60;;;;;;8270365;28;20449;-76
2021/04/03 02:20:12;;;;;;;20.93;6.33;;;8.20;78.80;;;;;;8264966;28;20578;-76
2021/04/03 02:24:14;;;;;;;23.63;5.30;;;8.20;79.30;;;;;;8259952;28;20473;-76
2021/04/03 02:28:20;;;;;;;23.77;8.03;;;8.10;79.60;;;;;;8278311;28;20537;-76
2021/04/03 02:32:25;;;;;;;19.67;5.60;;;8.10;80.00;;;;;;8258818;28;20465;-76
2021/04/03 02:36:26;;;;;;;23.90;6.80;;;8.10;80.10;;;;;;8281682;28;20514;-76
2021/04/03 02:40:32;;;;;;;17.00;6.73;;;8.10;80.20;;;;;;8264446;28;20452;-75
2021/04/03 02:44:45;;;;;;;16.43;8.47;;;8.00;80.30;;;;;;8270929;28;20437;-75
2021/04/03 02:48:49;;;;;;;18.40;7.00;;;7.90;80.20;;;;;;8281553;28;20520;-75
2021/04/03 02:52:54;;;;;;;25.27;9.27;;;7.90;80.50;;;;;;8280322;28;20458;-75
2021/04/03 02:56:56;;;;;;;28.83;10.20;;;7.90;80.70;;;;;;8263881;28;20441;-76
2021/04/03 03:01:01;;;;;;;14.17;8.80;;;7.80;80.70;;;;;;8261070;28;20485;-76
2021/04/03 03:05:07;;;;;;;24.47;9.30;;;7.80;80.90;;;;;;8265027;28;20457;-75
2021/04/03 03:09:08;;;;;;;25.13;7.43;;;7.70;81.00;;;;;;8267656;28;20476;-76
2021/04/03 03:13:18;;;;;;;15.23;7.07;;;7.70;81.10;;;;;;8274692;28;20428;-76
2021/04/03 03:17:21;;;;;;;20.40;6.07;;;7.70;81.00;;;;;;8259222;28;20461;-75
2021/04/03 03:21:22;;;;;;;20.13;6.20;;;7.70;80.90;;;;;;8258326;28;20476;-75
2021/04/03 03:25:26;;;;;;;15.37;5.77;;;7.70;80.50;;;;;;8263836;28;21029;-76
2021/04/03 03:29:28;;;;;;;16.70;6.73;;;7.70;80.60;;;;;;8289038;28;20548;-75
2021/04/03 03:33:28;;;;;;;20.13;7.90;;;7.60;80.60;;;;;;8284483;28;20453;-76
2021/04/03 03:37:30;;;;;;;17.73;8.10;;;7.60;80.40;;;;;;8263506;28;20523;-76
2021/04/03 03:41:34;;;;;;;13.53;5.13;;;7.60;80.20;;;;;;8258850;28;20205;-75
2021/04/03 03:45:34;;;;;;;16.67;5.87;;;7.60;79.10;;;;;;8263385;28;20456;-76
2021/04/03 03:49:36;;;;;;;11.77;4.80;;;7.60;78.20;;;;;;8295865;28;20460;-75
2021/04/03 03:53:37;;;;;;;11.73;4.30;;;7.60;78.30;;;;;;8263831;28;21116;-75
2021/04/03 03:57:38;;;;;;;9.80;4.03;;;7.60;77.30;;;;;;8282962;28;20796;-75
2021/04/03 04:01:42;;;;;;;8.20;3.70;;;7.60;77.20;;;;;;8267639;28;20448;-75
2021/04/03 04:05:47;;;;;;;20.03;4.50;;;7.60;77.20;;;;;;8285705;28;20234;-75
2021/04/03 04:09:51;;;;;;;16.60;4.90;;;7.60;77.20;;;;;;8254282;28;20573;-75
2021/04/03 04:13:52;;;;;;;13.93;4.37;;;7.60;77.20;;;;;;8261008;28;20456;-75
2021/04/03 04:17:56;;;;;;;8.50;4.37;;;7.60;77.20;;;;;;8283213;28;20441;-76
2021/04/03 04:22:01;;;;;;;14.83;4.77;;;7.60;77.40;;;;;;8261872;28;20193;-74
2021/04/03 04:26:02;;;;;;;17.53;3.87;;;7.60;77.70;;;;;;8297043;28;20448;-74
2021/04/03 04:30:12;;;;;;;16.50;4.50;;;7.60;77.70;;;;;;8262486;28;20511;-75
2021/04/03 04:34:12;;;;;;;15.30;5.70;;;7.60;77.80;;;;;;8254728;28;20203;-75
2021/04/03 04:38:16;;;;;;;20.63;6.70;;;7.60;78.20;;;;;;8255713;28;20531;-75
2021/04/03 04:42:17;;;;;;;12.87;5.50;;;7.60;78.10;;;;;;8261520;28;20292;-75
2021/04/03 04:46:18;;;;;;;11.97;5.87;;;7.60;78.20;;;;;;8244911;28;20518;-75
2021/04/03 04:50:19;;;;;;;17.70;7.57;;;7.60;78.50;;;;;;8266715;28;20522;-75
2021/04/03 04:54:23;;;;;;;19.60;7.50;;;7.60;78.20;;;;;;8258367;28;20224;-75
2021/04/03 04:58:24;;;;;;;24.40;8.13;;;7.60;78.10;;;;;;8289009;28;20452;-76
2021/04/03 05:02:25;;;;;;;26.73;9.90;;;7.60;77.80;;;;;;8262033;28;20452;-75
2021/04/03 05:06:30;;;;;;;23.23;8.43;;;7.60;78.20;;;;;;8273254;28;20235;-75
2021/04/03 05:10:30;;;;;;;20.47;8.53;;;7.60;78.20;;;;;;8286674;28;20477;-75
2021/04/03 05:14:32;;;;;;;24.97;10.30;;;7.60;78.00;;;;;;8257867;28;20461;-75
2021/04/03 05:18:40;;;;;;;24.40;8.10;;;7.60;77.30;;;;;;8265479;28;20570;-75
2021/04/03 05:22:46;;;;;;;21.93;9.10;;;7.60;77.60;;;;;;8307246;28;20460;-74
2021/04/03 05:26:51;;;;;;;16.43;7.93;;;7.60;77.60;;;;;;8270155;28;20908;-75
2021/04/03 05:30:52;;;;;;;24.60;7.27;;;7.60;77.50;;;;;;8249547;28;20500;-76
2021/04/03 05:34:56;;;;;;;22.20;8.40;;;7.70;77.40;;;;;;8290742;28;20453;-75
2021/04/03 05:38:57;;;;;;;21.53;5.97;;;7.70;77.10;;;;;;8285248;28;20308;-74
2021/04/03 05:43:01;;;;;;;22.10;5.87;;;7.70;76.80;;;;;;8257924;28;21017;-76
2021/04/03 05:47:02;;;;;;;19.73;7.00;;;7.70;76.80;;;;;;8275873;28;20197;-76
2021/04/03 05:51:03;;;;;;;16.80;7.40;;;7.70;76.30;;;;;;8268694;28;20491;-76
2021/04/03 05:55:07;;;;;;;16.83;9.43;;;7.80;76.00;;;;;;8305036;28;20452;-76
2021/04/03 05:59:14;;;;;;;24.30;5.53;;;7.80;76.20;;;;;;8262353;28;20455;-76
2021/04/03 06:03:15;;;;;;;9.23;5.47;;;7.90;75.40;;;;;;8265598;28;20450;-76
2021/04/03 06:07:16;;;;;;;10.63;5.43;;;7.90;75.10;;;;;;8290016;28;20485;-76
2021/04/03 06:11:19;;;;;;;23.50;7.63;;;8.00;74.90;;;;;;8266928;28;20478;-75
2021/04/03 06:15:28;;;;;;;19.90;5.10;;;8.10;72.90;;;;;;8266563;28;20223;-76
2021/04/03 06:19:29;;;;;;;15.50;3.93;;;8.30;71.60;;;;;;8290674;28;20866;-75
2021/04/03 06:23:30;;;;;;;24.37;4.80;;;8.50;71.20;;;;;;8262463;28;20471;-74
2021/04/03 06:27:36;;;;;;;15.83;5.03;;;8.60;68.30;;;;;;8284303;28;20459;-76
2021/04/03 06:31:40;;;;;;;8.67;3.80;;;8.70;68.20;;;;;;8266137;28;20493;-74
2021/04/03 06:35:43;;;;;;;6.63;2.87;;;8.90;68.30;;;;;;8264564;28;20471;-76
2021/04/03 06:40:00;;;;;;;12.50;4.97;;;9.00;67.50;;;;;;8258576;28;20557;-75
2021/04/03 06:44:11;;;;;;;12.80;3.90;;;9.10;67.00;;;;;;8269256;28;20456;-75
2021/04/03 06:48:14;;;;;;;14.93;4.40;;;9.20;67.50;;;;;;8275875;28;20457;-75
2021/04/03 06:52:14;;;;;;;14.87;5.07;;;9.30;67.80;;;;;;8273563;28;20482;-74
2021/04/03 06:56:20;;;;;;;22.70;6.27;;;9.50;69.20;;;;;;8272694;28;20487;-75
2021/04/03 07:00:21;;;;;;;15.00;4.80;;;9.60;68.50;;;;;;8293663;28;20208;-73
2021/04/03 07:04:36;;;;;;;16.90;4.70;;;9.70;68.60;;;;;;8269848;28;20461;-75
2021/04/03 07:08:43;;;;;;;20.97;5.50;;;9.70;67.50;;;;;;8289146;28;20478;-76
2021/04/03 07:12:44;;;;;;;19.97;3.40;;;9.80;66.10;;;;;;8279861;28;20471;-75
2021/04/03 07:16:48;;;;;;;18.90;4.90;;;10.30;62.30;;;;;;8271048;28;20439;-76
2021/04/03 07:20:53;;;;;;;5.30;2.97;;;11.20;60.60;;;;;;8254288;28;20908;-75
2021/04/03 07:24:54;;;;;;;17.17;3.83;;;12.50;55.00;;;;;;8309068;28;20477;-76
2021/04/03 07:29:08;;;;;;;16.70;3.80;;;13.30;52.90;;;;;;8268527;28;20472;-75
2021/04/03 07:33:12;;;;;;;8.83;3.73;;;13.60;49.60;;;;;;8287605;28;20479;-75
2021/04/03 07:37:34;;;;;;;16.63;4.70;;;13.80;48.30;;;;;;8283908;28;20459;-77
2021/04/03 07:41:39;;;;;;;11.23;3.23;;;14.30;47.90;;;;;;8260242;28;20503;-76
2021/04/03 07:45:54;;;;;;;15.53;5.47;;;14.60;46.30;;;;;;8262983;28;20441;-76
2021/04/03 07:49:55;;;;;;;17.43;3.50;;;15.30;46.30;;;;;;8256235;28;20477;-76
2021/04/03 07:54:04;;;;;;;13.17;4.20;;;16.00;45.10;;;;;;8259579;28;20448;-75
2021/04/03 07:58:28;;;;;;;16.80;6.30;;;17.00;44.60;;;;;;8258484;28;20499;-76
2021/04/03 08:02:37;;;;;;;18.20;4.47;;;17.70;44.10;;;;;;8264016;28;20450;-74
2021/04/03 08:06:40;;;;;;;16.47;5.70;;;17.10;45.00;;;;;;8263053;28;20455;-74
2021/04/03 08:10:41;;;;;;;13.70;4.63;;;16.10;47.20;;;;;;8289246;28;20477;-75
2021/04/03 08:14:59;;;;;;;19.33;6.07;;;15.20;46.40;;;;;;8264127;28;20459;-75
2021/04/03 08:19:12;;;;;;;20.27;7.47;;;14.60;48.70;;;;;;8255531;28;20485;-74
2021/04/03 08:23:18;;;;;;;23.20;6.70;;;14.00;50.40;;;;;;8276158;28;20468;-75
2021/04/03 08:27:30;;;;;;;12.50;5.80;;;13.50;52.00;;;;;;8283391;28;20456;-74
2021/04/03 08:31:40;;;;;;;15.73;5.77;;;13.80;53.20;;;;;;8284741;28;20483;-75
2021/04/03 08:35:48;;;;;;;14.40;5.83;;;15.30;48.00;;;;;;8274388;28;20466;-74
2021/04/03 08:39:49;;;;;;;25.30;6.80;;;16.40;46.00;;;;;;8286432;28;20450;-73
2021/04/03 08:43:54;;;;;;;12.00;6.70;;;16.80;43.70;;;;;;8276918;28;20448;-75
2021/04/03 08:47:56;;;;;;;15.47;7.73;;;16.80;44.00;;;;;;8269501;28;20345;-74
2021/04/03 08:51:59;;;;;;;24.90;8.00;;;17.00;44.40;;;;;;8267195;28;20538;-76
2021/04/03 08:56:00;;;;;;;19.10;8.20;;;17.20;44.00;;;;;;8274298;28;20452;-75
2021/04/03 09:00:04;;;;;;;15.30;7.27;;;17.90;44.00;;;;;;8264069;28;20441;-75
2021/04/03 09:04:07;;;;;;;14.93;7.93;;;18.80;42.00;;;;;;8268228;28;20198;-75
2021/04/03 09:08:23;;;;;;;18.53;7.80;;;19.20;41.10;;;;;;8274598;28;20498;-75
2021/04/03 09:12:29;;;;;;;18.87;8.00;;;20.00;40.20;;;;;;8284234;28;20478;-75
2021/04/03 09:16:37;;;;;;;18.50;8.70;;;19.90;39.80;;;;;;8253937;28;20422;-76
2021/04/03 09:20:50;;;;;;;12.67;6.10;;;20.30;40.30;;;;;;8281689;28;20453;-75
2021/04/03 09:25:12;;;;;;;11.77;4.83;;;20.00;38.70;;;;;;8260987;28;20637;-75
2021/04/03 09:29:13;;;;;;;11.17;5.63;;;19.60;39.10;;;;;;8281537;28;20486;-75
2021/04/03 09:33:26;;;;;;;15.97;5.23;;;19.40;39.90;;;;;;8270214;28;20484;-75
2021/04/03 09:37:27;;;;;;;7.90;4.90;;;20.20;39.10;;;;;;8255915;28;20819;-77
2021/04/03 09:41:33;;;;;;;13.40;5.57;;;21.00;37.90;;;;;;8282628;28;20984;-76
2021/04/03 09:45:40;;;;;;;14.50;6.07;;;21.20;37.50;;;;;;8262952;28;20217;-76
2021/04/03 09:49:41;;;;;;;23.20;6.83;;;20.40;38.10;;;;;;8272080;28;21371;-76
2021/04/03 09:53:45;;;;;;;10.30;4.67;;;20.70;39.00;;;;;;8258033;28;20941;-76
2021/04/03 09:57:47;;;;;;;11.90;4.90;;;21.60;37.60;;;;;;8270925;28;20499;-75
2021/04/03 10:01:51;;;;;;;10.53;5.57;;;22.40;36.10;;;;;;8253097;28;20533;-76
2021/04/03 10:05:52;;;;;;;18.67;6.10;;;22.30;36.00;;;;;;8273701;28;20464;-76
2021/04/03 10:09:54;;;;;;;16.50;5.23;;;21.70;36.60;;;;;;8264279;28;20744;-75
2021/04/03 10:13:57;;;;;;;14.00;6.70;;;21.80;37.40;;;;;;8259125;28;20194;-75
2021/04/03 10:17:57;;;;;;;9.70;5.40;;;22.00;36.30;;;;;;8258879;28;20492;-77
2021/04/03 10:21:59;;;;;;;8.87;5.83;;;21.80;36.50;;;;;;8223366;28;20456;-75
2021/04/03 10:26:02;;;;;;;19.70;6.53;;;21.30;37.50;;;;;;8239358;28;20685;-76
2021/04/03 10:30:04;;;;;;;13.10;5.60;;;21.60;37.00;;;;;;8267564;28;20978;-74
2021/04/03 10:34:06;;;;;;;16.13;5.10;;;21.70;36.90;;;;;;8260184;28;20441;-74
2021/04/03 10:38:07;;;;;;;11.90;5.27;;;21.50;36.80;;;;;;8283934;28;20447;-74
2021/04/03 10:42:09;;;;;;;14.77;4.87;;;21.20;38.60;;;;;;8250243;28;20507;-74
2021/04/03 10:46:10;;;;;;;13.80;6.00;;;21.10;36.40;;;;;;8265062;28;20232;-74
2021/04/03 10:50:15;;;;;;;10.77;6.50;;;20.80;36.90;;;;;;8259493;28;20472;-74
2021/04/03 10:54:21;;;;;;;17.23;6.33;;;21.10;37.60;;;;;;8245841;28;20444;-74
2021/04/03 10:58:25;;;;;;;15.87;6.37;;;20.20;36.70;;;;;;8262148;28;21057;-74
2021/04/03 11:02:26;;;;;;;13.97;5.87;;;19.60;38.30;;;;;;8256179;28;20449;-75
2021/04/03 11:06:28;;;;;;;12.47;6.17;;;19.40;38.40;;;;;;8261451;28;20452;-73
2021/04/03 11:10:30;;;;;;;14.73;6.30;;;19.50;39.90;;;;;;8281718;28;20227;-73
2021/04/03 11:14:32;;;;;;;22.93;6.30;;;19.70;39.50;;;;;;8268424;28;20455;-74
2021/04/03 11:18:36;;;;;;;21.07;6.97;;;19.80;38.90;;;;;;8247835;28;20451;-75
2021/04/03 11:22:37;;;;;;;15.43;6.20;;;19.60;40.30;;;;;;8255037;28;20554;-76
2021/04/03 11:26:48;;;;;;;10.67;7.50;;;19.40;40.50;;;;;;8244478;28;20578;-75
2021/04/03 11:30:48;;;;;;;16.33;6.87;;;18.80;40.90;;;;;;8236595;28;20508;-75
2021/04/03 11:34:49;;;;;;;22.97;7.40;;;19.20;40.70;;;;;;8273850;28;20449;-75
2021/04/03 11:38:50;;;;;;;11.63;6.40;;;19.40;39.40;;;;;;8245480;28;20290;-75
2021/04/03 11:42:55;;;;;;;15.50;7.80;;;19.20;39.40;;;;;;8252846;28;20201;-74
2021/04/03 11:46:58;;;;;;;14.40;6.27;;;19.10;39.40;;;;;;8263987;28;20205;-74
2021/04/03 11:50:59;;;;;;;12.43;6.50;;;18.40;38.10;;;;;;8267116;28;20483;-74
2021/04/03 11:55:02;;;;;;;9.83;6.00;;;17.70;39.90;;;;;;8260485;28;20448;-76
2021/04/03 11:59:03;;;;;;;22.23;7.30;;;18.10;40.70;;;;;;8270820;28;20197;-74
2021/04/03 12:03:08;;;;;;;15.00;6.07;;;19.00;39.90;;;;;;8276361;28;20958;-77
2021/04/03 12:07:15;;;;;;;9.30;6.30;;;19.80;37.80;;;;;;8249185;28;20449;-75
2021/04/03 12:11:20;;;;;;;42.47;9.77;;;20.00;38.10;;;;;;8240317;28;20514;-75
2021/04/03 12:15:21;;;;;;;14.87;5.07;;;19.70;38.70;;;;;;8243832;28;20430;-75
2021/04/03 12:19:21;;;;;;;13.00;5.50;;;19.00;38.70;;;;;;8280793;28;20482;-74
2021/04/03 12:23:25;;;;;;;16.07;5.20;;;18.40;38.20;;;;;;8263476;28;20240;-75
2021/04/03 12:27:26;;;;;;;14.53;6.17;;;18.80;39.00;;;;;;8263382;28;21137;-74
2021/04/03 12:31:27;;;;;;;102.23;83.87;;;19.70;39.30;;;;;;8240513;28;21290;-74
2021/04/03 12:35:31;;;;;;;24.70;11.40;;;20.00;38.10;;;;;;8274876;28;20190;-73
2021/04/03 12:39:32;;;;;;;77.47;70.30;;;19.60;37.20;;;;;;8267328;28;20190;-73
2021/04/03 12:43:35;;;;;;;12.30;6.30;;;18.80;37.40;;;;;;8273880;28;20502;-75
2021/04/03 12:47:36;;;;;;;9.63;6.10;;;18.30;39.10;;;;;;8262460;28;20758;-76
2021/04/03 12:51:38;;;;;;;33.37;8.73;;;18.40;38.20;;;;;;8265920;28;20468;-74
2021/04/03 12:55:39;;;;;;;17.30;6.50;;;18.40;39.80;;;;;;8256783;28;21083;-74
2021/04/03 12:59:40;;;;;;;12.73;7.03;;;18.30;39.30;;;;;;8268823;28;20854;-74
2021/04/03 13:03:43;;;;;;;10.43;6.43;;;18.00;40.10;;;;;;8252565;28;20193;-75
2021/04/03 13:07:44;;;;;;;18.27;6.90;;;17.90;40.90;;;;;;8299940;28;20223;-75
2021/04/03 13:11:46;;;;;;;18.03;9.07;;;17.90;40.10;;;;;;8265103;28;20479;-75
2021/04/03 13:15:51;;;;;;;21.33;17.53;;;18.20;40.80;;;;;;8268637;28;20440;-77
2021/04/03 13:19:52;;;;;;;22.40;9.80;;;18.80;39.70;;;;;;8250194;28;20452;-77
2021/04/03 13:23:54;;;;;;;15.83;12.87;;;19.00;40.00;;;;;;8289799;28;20465;-74
2021/04/03 13:27:58;;;;;;;16.80;6.07;;;19.20;40.30;;;;;;8278016;28;20204;-76
2021/04/03 13:32:11;;;;;;;10.33;7.53;;;19.40;39.90;;;;;;8263657;28;20519;-77
2021/04/03 13:36:12;;;;;;;17.90;11.27;;;19.60;37.80;;;;;;8276309;28;21016;-77
2021/04/03 13:40:19;;;;;;;17.57;9.83;;;19.00;39.80;;;;;;8266347;28;20444;-78
2021/04/03 13:44:20;;;;;;;24.00;10.40;;;18.40;40.80;;;;;;8247868;28;20217;-75
2021/04/03 13:48:23;;;;;;;23.07;11.00;;;18.00;41.50;;;;;;8268498;28;20445;-76
2021/04/03 13:52:25;;;;;;;20.27;10.43;;;17.80;42.20;;;;;;8301090;28;20468;-76
2021/04/03 13:56:27;;;;;;;17.47;10.87;;;17.80;41.70;;;;;;8273974;28;20507;-75
2021/04/03 14:00:29;;;;;;;18.70;11.90;;;18.30;41.70;;;;;;8263358;28;20480;-75
2021/04/03 14:04:30;;;;;;;17.83;10.50;;;18.90;41.10;;;;;;8243330;28;21079;-75
2021/04/03 14:08:32;;;;;;;25.27;13.23;;;19.20;39.50;;;;;;8273634;28;20825;-74
2021/04/03 14:12:35;;;;;;;19.53;12.70;;;18.90;39.70;;;;;;8280277;28;20221;-76
2021/04/03 14:17:02;;;;;;;17.43;12.00;;;18.40;40.60;;;;;;8264009;28;20856;-76
2021/04/03 14:21:10;;;;;;;19.60;10.47;;;18.30;41.20;;;;;;8261630;28;20452;-76
2021/04/03 14:25:15;;;;;;;23.13;13.20;;;18.10;41.40;;;;;;8260735;28;20466;-75
2021/04/03 14:29:17;;;;;;;18.67;10.90;;;18.10;40.60;;;;;;8264741;28;21020;-74
2021/04/03 14:33:18;;;;;;;19.57;12.50;;;18.00;41.20;;;;;;8281134;28;20583;-72
2021/04/03 14:37:23;;;;;;;17.43;11.07;;;18.10;42.00;;;;;;8281949;28;20444;-74
2021/04/03 14:41:25;;;;;;;13.30;10.40;;;18.30;41.50;;;;;;8300534;28;20192;-74
2021/04/03 14:45:26;;;;;;;23.40;8.43;;;17.90;41.00;;;;;;8259569;28;20463;-73
2021/04/03 14:49:27;;;;;;;14.30;8.03;;;17.40;40.80;;;;;;8258931;28;20504;-73
2021/04/03 14:53:32;;;;;;;13.70;9.47;;;17.30;40.50;;;;;;8244755;28;20195;-73
2021/04/03 14:57:39;;;;;;;12.20;9.17;;;17.60;41.70;;;;;;8255479;28;20457;-74
2021/04/03 15:01:41;;;;;;;19.20;9.60;;;18.00;41.80;;;;;;8248655;28;20455;-73
2021/04/03 15:05:41;;;;;;;24.77;12.07;;;18.50;40.40;;;;;;8271268;28;20515;-73
2021/04/03 15:09:42;;;;;;;18.43;9.67;;;18.20;40.20;;;;;;8262886;28;20467;-73
2021/04/03 15:13:45;;;;;;;16.20;9.50;;;17.70;40.70;;;;;;8254999;28;20980;-74
2021/04/03 15:17:47;;;;;;;21.23;8.03;;;17.10;40.90;;;;;;8253479;28;20242;-74
2021/04/03 15:21:48;;;;;;;16.27;7.20;;;16.70;42.00;;;;;;8284125;28;20445;-73
2021/04/03 15:25:49;;;;;;;17.47;7.50;;;16.50;43.30;;;;;;8275893;28;20579;-74
2021/04/03 15:29:53;;;;;;;13.80;7.03;;;16.60;42.00;;;;;;8243452;28;20217;-74
2021/04/03 15:33:55;;;;;;;14.17;8.77;;;16.90;42.70;;;;;;8273274;28;20465;-73
2021/04/03 15:38:00;;;;;;;21.23;10.70;;;17.30;41.60;;;;;;8264862;28;20482;-75
2021/04/03 15:42:12;;;;;;;19.53;7.53;;;17.60;41.60;;;;;;8309068;28;20578;-78
2021/04/03 15:46:13;;;;;;;15.07;8.90;;;17.60;41.90;;;;;;8260474;28;20445;-76
2021/04/03 15:50:21;;;;;;;14.60;9.77;;;17.40;41.10;;;;;;8270143;28;20478;-76
2021/04/03 15:54:42;;;;;;;30.40;10.67;;;17.10;41.90;;;;;;8293989;28;20193;-76
2021/04/03 15:58:45;;;;;;;18.70;11.40;;;16.90;42.90;;;;;;8273976;28;20442;-75
2021/04/03 16:02:47;;;;;;;14.07;8.50;;;16.70;42.30;;;;;;8262851;28;20960;-74
2021/04/03 16:06:48;;;;;;;17.73;7.93;;;16.30;41.70;;;;;;8269850;28;20884;-75
2021/04/03 16:10:54;;;;;;;14.87;7.80;;;15.90;42.50;;;;;;8267443;28;21107;-75
2021/04/03 16:14:57;;;;;;;12.90;8.53;;;15.60;43.60;;;;;;8293394;28;20202;-76
2021/04/03 16:18:58;;;;;;;12.53;7.30;;;15.30;43.40;;;;;;8275429;28;20508;-78
2021/04/03 16:22:59;;;;;;;12.53;7.20;;;15.30;44.20;;;;;;8280311;28;20465;-78
2021/04/03 16:27:00;;;;;;;24.00;8.50;;;15.50;43.00;;;;;;8280595;28;20609;-78
2021/04/03 16:31:14;;;;;;;17.83;9.53;;;15.60;43.60;;;;;;8321618;28;20213;-78
2021/04/03 16:35:22;;;;;;;23.10;11.20;;;15.50;43.80;;;;;;8277848;28;20444;-79
2021/04/03 16:39:31;;;;;;;19.90;11.27;;;15.30;44.40;;;;;;8283798;28;20473;-77
2021/04/03 16:43:35;;;;;;;21.47;11.30;;;15.00;44.90;;;;;;8299655;28;20529;-75
2021/04/03 16:47:36;;;;;;;18.27;13.23;;;14.70;45.40;;;;;;8267593;28;20450;-77
2021/04/03 16:51:40;;;;;;;29.80;12.63;;;14.60;46.40;;;;;;8296755;28;20227;-76
2021/04/03 16:55:41;;;;;;;18.33;10.53;;;14.50;45.60;;;;;;8285615;28;20436;-75
2021/04/03 16:59:42;;;;;;;21.00;10.10;;;14.60;45.80;;;;;;8289994;28;20443;-76
2021/04/03 17:03:44;;;;;;;12.80;9.93;;;14.80;45.10;;;;;;8296000;28;20263;-76
2021/04/03 17:07:55;;;;;;;23.20;13.20;;;15.00;44.90;;;;;;8270412;28;20645;-79
2021/04/03 17:12:02;;;;;;;27.40;16.60;;;15.10;46.30;;;;;;8281585;28;20472;-75
2021/04/03 17:16:08;;;;;;;27.30;16.50;;;15.10;48.00;;;;;;8260651;28;20448;-74
2021/04/03 17:20:16;;;;;;;26.90;15.13;;;15.00;48.40;;;;;;8272200;28;20476;-75
2021/04/03 17:24:17;;;;;;;28.33;14.70;;;14.90;48.10;;;;;;8271210;28;20460;-75
2021/04/03 17:28:18;;;;;;;26.10;14.27;;;14.70;48.40;;;;;;8261741;28;20448;-75
2021/04/03 17:32:19;;;;;;;33.27;15.77;;;14.40;48.90;;;;;;8252698;28;20248;-74
2021/04/03 17:36:21;;;;;;;31.20;15.00;;;14.10;50.20;;;;;;8257450;28;20458;-74
2021/04/03 17:40:22;;;;;;;32.43;18.87;;;13.80;51.50;;;;;;8264747;28;20202;-75
2021/04/03 17:44:26;;;;;;;28.53;17.60;;;13.50;52.40;;;;;;8273635;28;20508;-76
2021/04/03 17:48:28;;;;;;;38.67;18.63;;;13.30;53.20;;;;;;8288656;28;20503;-75
2021/04/03 17:52:33;;;;;;;29.63;17.23;;;13.00;54.00;;;;;;8245210;28;20484;-76
2021/04/03 17:56:33;;;;;;;32.47;15.77;;;12.70;54.80;;;;;;8289145;28;21054;-76
2021/04/03 18:00:39;;;;;;;31.00;16.00;;;12.50;55.60;;;;;;8270291;28;20453;-75
2021/04/03 18:04:41;;;;;;;32.87;17.83;;;12.20;56.20;;;;;;8251320;28;20725;-77
2021/04/03 18:08:42;;;;;;;28.73;17.83;;;12.00;56.90;;;;;;8269418;28;20469;-77
2021/04/03 18:12:43;;;;;;;32.30;18.57;;;11.80;57.90;;;;;;8247318;28;20577;-77
2021/04/03 18:16:49;;;;;;;35.00;18.10;;;11.60;58.80;;;;;;8301719;28;20444;-76
2021/04/03 18:20:55;;;;;;;34.47;16.63;;;11.40;59.60;;;;;;8266847;28;20331;-76
2021/04/03 18:25:00;;;;;;;40.20;17.80;;;11.10;60.00;;;;;;8282919;28;20471;-76
2021/04/03 18:29:10;;;;;;;39.17;18.07;;;11.00;60.80;;;;;;8270941;28;20478;-76
2021/04/03 18:33:13;;;;;;;35.90;18.90;;;10.80;61.90;;;;;;8293617;28;20480;-75
2021/04/03 18:37:15;;;;;;;38.90;19.50;;;10.70;62.60;;;;;;8270115;28;20448;-76
2021/04/03 18:41:18;;;;;;;33.10;19.13;;;10.60;63.20;;;;;;8274395;28;20975;-76
2021/04/03 18:45:20;;;;;;;37.93;20.80;;;10.60;63.10;;;;;;8280014;28;20459;-76
2021/04/03 18:49:21;;;;;;;31.87;19.17;;;10.60;63.30;;;;;;8263008;28;20443;-75
2021/04/03 18:53:21;;;;;;;37.33;20.60;;;10.60;63.80;;;;;;8276968;28;20481;-76
2021/04/03 18:57:24;;;;;;;34.90;19.23;;;10.60;63.70;;;;;;8292519;28;20451;-77
2021/04/03 19:01:24;;;;;;;46.17;19.77;;;10.50;63.90;;;;;;8263354;28;20200;-76
2021/04/03 19:05:26;;;;;;;33.87;18.30;;;10.50;64.10;;;;;;8256393;28;20530;-76
2021/04/03 19:09:26;;;;;;;62.67;21.20;;;10.40;64.60;;;;;;8278463;28;20862;-76
2021/04/03 19:13:28;;;;;;;31.00;20.20;;;10.30;64.80;;;;;;8265612;28;21005;-75
2021/04/03 19:17:30;;;;;;;40.37;20.90;;;10.20;65.60;;;;;;8287889;28;20196;-76
2021/04/03 19:21:38;;;;;;;31.77;19.03;;;10.10;65.90;;;;;;8282058;28;20456;-75
2021/04/03 19:25:45;;;;;;;32.60;17.00;;;10.00;66.30;;;;;;8245786;28;20473;-75
2021/04/03 19:29:46;;;;;;;45.20;20.63;;;9.80;67.00;;;;;;8275895;28;20453;-74
2021/04/03 19:36:45;;;;;;;42.70;22.10;;;9.60;67.80;;;;;;8414750;27;20588;-74
2021/04/03 19:40:49;;;;;;;42.47;21.20;;;9.50;68.80;;;;;;8398985;28;20472;-76
2021/04/03 19:44:50;;;;;;;40.93;19.30;;;9.30;69.30;;;;;;8349930;28;20597;-76
2021/04/03 19:48:52;;;;;;;39.00;18.20;;;9.20;69.10;;;;;;8363158;28;20483;-74
2021/04/03 19:52:53;;;;;;;33.13;17.80;;;9.20;69.30;;;;;;8376721;28;20456;-74
2021/04/03 19:56:55;;;;;;;33.40;16.17;;;9.20;69.10;;;;;;8362473;28;20451;-74
2021/04/03 20:00:58;;;;;;;34.53;16.03;;;9.30;68.90;;;;;;8375752;28;20184;-76
2021/04/03 20:05:06;;;;;;;32.53;15.20;;;9.30;68.50;;;;;;8382919;28;20456;-75
2021/04/03 20:09:09;;;;;;;29.07;14.17;;;9.40;68.40;;;;;;8376955;28;20474;-75
2021/04/03 20:13:10;;;;;;;28.40;13.20;;;9.40;67.60;;;;;;8381089;28;20568;-75
2021/04/03 20:17:12;;;;;;;28.47;13.53;;;9.40;67.50;;;;;;8385246;28;20443;-75
2021/04/03 20:21:16;;;;;;;28.50;14.30;;;9.40;67.20;;;;;;8381378;28;20178;-74
2021/04/03 20:25:17;;;;;;;33.03;14.00;;;9.30;67.20;;;;;;8385093;28;20454;-76
2021/04/03 20:29:17;;;;;;;33.30;11.87;;;9.30;67.40;;;;;;8381969;28;20205;-75
2021/04/03 20:33:18;;;;;;;24.17;11.30;;;9.20;66.70;;;;;;8380713;28;20214;-74
2021/04/03 20:37:23;;;;;;;22.70;12.10;;;9.20;66.90;;;;;;8386111;28;20512;-75
2021/04/03 20:41:27;;;;;;;26.70;12.20;;;9.10;66.90;;;;;;8373350;28;20278;-73
2021/04/03 20:45:33;;;;;;;28.20;10.90;;;9.10;66.90;;;;;;8373991;28;20458;-74
2021/04/03 20:49:39;;;;;;;21.93;10.57;;;9.00;67.00;;;;;;8350494;28;20460;-76
2021/04/03 20:53:47;;;;;;;27.00;12.20;;;8.90;67.10;;;;;;8355376;28;20548;-75
2021/04/03 20:57:51;;;;;;;18.10;10.53;;;8.90;67.10;;;;;;8360675;28;21113;-75